Time;durP1;ratioP1;P1;durP2;ratioP2;P2;SDS_P1;SDS_P2;PMS_P1;PMS_P2;Temp;Humidity;BMP_temperature;BMP_pressure;BME280_temperature;BME280_humidity;BME280_pressure;Samples;Min_cycle;Max_cycle;Signal;HPM_P1;HPM_P2
2022/03/08 00:01:26;;;;;;;60.95;32.45;;;-3.40;99.90;;;;;;5055910;28;20646;-60
2022/03/08 00:03:53;;;;;;;61.47;33.45;;;-3.40;99.90;;;;;;5056413;28;20048;-61
2022/03/08 00:06:20;;;;;;;66.07;34.83;;;-3.40;99.90;;;;;;5056378;28;20102;-61
2022/03/08 00:08:47;;;;;;;60.70;32.50;;;-3.40;99.90;;;;;;5036602;28;20091;-61
2022/03/08 00:11:16;;;;;;;62.92;36.85;;;-3.50;99.90;;;;;;5060002;28;20032;-60
2022/03/08 00:13:43;;;;;;;61.17;35.45;;;-3.50;99.90;;;;;;5076783;28;20105;-60
2022/03/08 00:16:11;;;;;;;67.38;39.08;;;-3.50;99.90;;;;;;5076371;28;20036;-61
2022/03/08 00:18:38;;;;;;;63.58;34.85;;;-3.50;99.90;;;;;;5077571;28;20044;-61
2022/03/08 00:21:05;;;;;;;56.20;31.33;;;-3.50;99.90;;;;;;5076949;28;20834;-61
2022/03/08 00:23:33;;;;;;;64.50;36.97;;;-3.50;99.90;;;;;;5064682;28;20055;-61
2022/03/08 00:26:00;;;;;;;59.35;33.10;;;-3.60;99.90;;;;;;5056100;28;20132;-61
2022/03/08 00:28:28;;;;;;;67.28;36.72;;;-3.60;99.90;;;;;;5056582;28;20051;-61
2022/03/08 00:30:56;;;;;;;62.20;34.58;;;-3.60;99.90;;;;;;5054602;28;20085;-61
2022/03/08 00:33:24;;;;;;;59.58;34.53;;;-3.60;99.90;;;;;;5060475;28;20044;-61
2022/03/08 00:35:52;;;;;;;62.75;35.65;;;-3.70;99.90;;;;;;5076440;28;20476;-61
2022/03/08 00:38:19;;;;;;;63.90;35.47;;;-3.70;99.90;;;;;;5075928;28;20035;-62
2022/03/08 00:40:46;;;;;;;61.50;35.90;;;-3.70;99.90;;;;;;5076797;28;20119;-61
2022/03/08 00:43:14;;;;;;;59.47;32.63;;;-3.70;99.90;;;;;;5075425;28;20028;-61
2022/03/08 00:45:41;;;;;;;67.15;35.28;;;-3.70;99.90;;;;;;5076004;28;20055;-61
2022/03/08 00:48:09;;;;;;;56.72;32.08;;;-3.70;99.90;;;;;;5074972;28;20034;-61
2022/03/08 00:50:38;;;;;;;66.13;36.70;;;-3.80;99.90;;;;;;5074651;28;20048;-61
2022/03/08 00:53:05;;;;;;;61.22;34.67;;;-3.80;99.90;;;;;;5046666;28;20584;-61
2022/03/08 00:55:34;;;;;;;66.53;37.15;;;-3.80;99.90;;;;;;5036047;28;20044;-61
2022/03/08 00:58:02;;;;;;;65.10;34.67;;;-3.80;99.90;;;;;;5034849;28;20713;-61
2022/03/08 01:00:30;;;;;;;65.78;36.42;;;-3.80;99.90;;;;;;5049820;28;20049;-61
2022/03/08 01:02:57;;;;;;;65.13;35.60;;;-3.80;99.90;;;;;;5033964;28;20045;-61
2022/03/08 01:05:25;;;;;;;65.43;36.30;;;-3.80;99.90;;;;;;5036350;28;20060;-61
2022/03/08 01:07:52;;;;;;;65.50;36.97;;;-3.90;99.90;;;;;;5072333;28;20037;-61
2022/03/08 01:10:22;;;;;;;74.55;37.00;;;-3.90;99.90;;;;;;5070994;28;20048;-61
2022/03/08 01:12:50;;;;;;;68.75;36.38;;;-3.90;99.90;;;;;;5055886;28;20051;-61
2022/03/08 01:15:19;;;;;;;63.45;34.72;;;-4.00;99.90;;;;;;5054460;28;20037;-61
2022/03/08 01:17:47;;;;;;;66.28;35.38;;;-4.00;99.90;;;;;;5055519;28;20032;-61
2022/03/08 01:20:14;;;;;;;65.30;36.75;;;-4.00;99.90;;;;;;5055499;28;20180;-61
2022/03/08 01:22:41;;;;;;;71.38;38.15;;;-4.10;99.90;;;;;;5057549;28;20052;-61
2022/03/08 01:25:10;;;;;;;69.20;37.10;;;-4.10;99.90;;;;;;5075102;28;20091;-61
2022/03/08 01:27:37;;;;;;;65.65;37.50;;;-4.10;99.90;;;;;;5074025;28;20051;-61
2022/03/08 01:30:11;;;;;;;73.18;37.85;;;-4.10;99.90;;;;;;5073534;28;20051;-61
2022/03/08 01:32:38;;;;;;;69.47;39.53;;;-4.20;99.90;;;;;;5074352;28;20036;-61
2022/03/08 01:35:06;;;;;;;71.78;38.10;;;-4.20;99.90;;;;;;5055286;28;20051;-61
2022/03/08 01:37:32;;;;;;;88.85;44.13;;;-4.20;99.90;;;;;;5054413;28;20549;-62
2022/03/08 01:39:59;;;;;;;74.85;41.30;;;-4.30;99.90;;;;;;5055285;28;20048;-61
2022/03/08 01:42:26;;;;;;;75.68;39.72;;;-4.30;99.90;;;;;;5054601;28;20745;-61
2022/03/08 01:44:54;;;;;;;69.22;38.75;;;-4.30;99.90;;;;;;5053130;28;20036;-61
2022/03/08 01:47:23;;;;;;;77.45;38.70;;;-4.30;99.90;;;;;;5053557;28;20536;-61
2022/03/08 01:49:52;;;;;;;68.55;37.00;;;-4.40;99.90;;;;;;5054797;28;20044;-61
2022/03/08 01:52:22;;;;;;;70.18;39.17;;;-4.40;99.90;;;;;;5057177;28;20044;-61
2022/03/08 01:54:49;;;;;;;74.53;38.65;;;-4.40;99.90;;;;;;5033749;28;20037;-61
2022/03/08 01:57:19;;;;;;;80.30;41.03;;;-4.40;99.90;;;;;;5035060;28;20051;-61
2022/03/08 01:59:46;;;;;;;69.75;36.88;;;-4.40;99.90;;;;;;5034538;28;20598;-61
2022/03/08 02:02:13;;;;;;;73.10;37.28;;;-4.50;99.90;;;;;;5034826;28;20083;-61
2022/03/08 02:04:40;;;;;;;65.00;36.65;;;-4.50;99.90;;;;;;5034081;28;20051;-61
2022/03/08 02:07:07;;;;;;;67.60;37.05;;;-4.50;99.90;;;;;;5054557;28;20053;-61
2022/03/08 02:09:34;;;;;;;74.72;38.33;;;-4.50;99.90;;;;;;5055084;28;20036;-60
2022/03/08 02:12:01;;;;;;;70.75;36.67;;;-4.50;99.90;;;;;;5071674;28;20051;-61
2022/03/08 02:14:28;;;;;;;65.88;35.05;;;-4.60;99.90;;;;;;5073499;28;20059;-61
2022/03/08 02:16:55;;;;;;;80.57;40.45;;;-4.60;99.90;;;;;;5074461;28;20048;-60
2022/03/08 02:19:22;;;;;;;73.97;41.00;;;-4.60;99.90;;;;;;5074902;28;20044;-61
2022/03/08 02:21:50;;;;;;;81.28;42.92;;;-4.60;99.90;;;;;;5074090;28;20048;-61
2022/03/08 02:24:17;;;;;;;75.85;40.63;;;-4.60;99.90;;;;;;5056546;28;20044;-61
2022/03/08 02:26:45;;;;;;;77.90;40.50;;;-4.70;99.90;;;;;;5054609;28;20044;-61
2022/03/08 02:29:12;;;;;;;78.25;41.25;;;-4.70;99.90;;;;;;5053899;28;20047;-60
2022/03/08 02:31:39;;;;;;;67.10;37.28;;;-4.70;99.90;;;;;;5054488;28;20064;-60
2022/03/08 02:34:06;;;;;;;76.90;41.28;;;-4.70;99.90;;;;;;5064344;28;20040;-61
2022/03/08 02:36:33;;;;;;;79.25;41.05;;;-4.70;99.90;;;;;;5074100;28;20089;-61
2022/03/08 02:39:00;;;;;;;70.75;38.42;;;-4.70;99.90;;;;;;5074223;28;20117;-61
2022/03/08 02:41:27;;;;;;;73.97;38.88;;;-4.70;99.90;;;;;;5074158;28;20044;-61
2022/03/08 02:43:53;;;;;;;83.30;41.25;;;-4.70;99.90;;;;;;5073494;28;20048;-61
2022/03/08 02:46:20;;;;;;;76.63;40.83;;;-4.70;99.90;;;;;;5073986;28;20059;-61
2022/03/08 02:48:47;;;;;;;70.97;39.17;;;-4.70;99.90;;;;;;5074274;28;20048;-61
2022/03/08 02:51:14;;;;;;;71.50;38.33;;;-4.70;99.90;;;;;;5071323;28;20128;-61
2022/03/08 02:53:41;;;;;;;73.18;38.75;;;-4.80;99.90;;;;;;5037928;28;20080;-61
2022/03/08 02:56:08;;;;;;;83.35;42.20;;;-4.80;99.90;;;;;;5049409;28;20072;-61
2022/03/08 02:58:35;;;;;;;80.95;41.35;;;-4.80;99.90;;;;;;5033624;28;20038;-61
2022/03/08 03:01:01;;;;;;;69.32;37.78;;;-4.80;99.90;;;;;;5034037;28;20061;-60
2022/03/08 03:03:28;;;;;;;76.25;39.35;;;-4.90;99.90;;;;;;5033546;28;20676;-60
2022/03/08 03:05:55;;;;;;;80.40;40.90;;;-4.90;99.90;;;;;;5044852;28;20052;-60
2022/03/08 03:08:23;;;;;;;78.40;40.40;;;-5.00;99.90;;;;;;5054106;28;20052;-60
2022/03/08 03:10:49;;;;;;;82.22;41.50;;;-5.00;99.90;;;;;;5061996;28;20041;-64
2022/03/08 03:13:16;;;;;;;74.57;40.83;;;-4.90;99.90;;;;;;5055422;28;20044;-64
2022/03/08 03:15:43;;;;;;;81.68;40.67;;;-5.00;99.90;;;;;;5038973;28;20041;-63
2022/03/08 03:18:10;;;;;;;74.20;38.58;;;-5.00;99.90;;;;;;5033623;28;20055;-64
2022/03/08 03:20:38;;;;;;;77.10;40.50;;;-5.00;99.90;;;;;;5038038;28;20049;-65
2022/03/08 03:23:05;;;;;;;80.65;41.72;;;-5.00;99.90;;;;;;5051008;28;20043;-65
2022/03/08 03:25:32;;;;;;;77.28;41.83;;;-5.00;99.90;;;;;;5077631;28;20040;-66
2022/03/08 03:27:58;;;;;;;76.18;40.67;;;-5.00;99.90;;;;;;5076472;28;20665;-66
2022/03/08 03:30:25;;;;;;;81.30;39.40;;;-5.00;99.90;;;;;;5076740;28;20573;-66
2022/03/08 03:32:52;;;;;;;80.95;40.53;;;-5.10;99.90;;;;;;5077001;28;20093;-66
2022/03/08 03:35:19;;;;;;;78.38;40.67;;;-5.10;99.90;;;;;;5056675;28;20044;-65
2022/03/08 03:37:46;;;;;;;74.10;39.70;;;-5.10;99.90;;;;;;5057522;28;20064;-65
2022/03/08 03:40:14;;;;;;;78.75;39.90;;;-5.20;99.90;;;;;;5055727;28;20684;-65
2022/03/08 03:42:41;;;;;;;75.47;39.28;;;-5.20;99.90;;;;;;5055701;28;20134;-65
2022/03/08 03:45:09;;;;;;;81.75;41.95;;;-5.20;99.90;;;;;;5056457;28;20045;-64
2022/03/08 03:47:36;;;;;;;88.15;42.83;;;-5.20;99.90;;;;;;5057661;28;20113;-66
2022/03/08 03:50:08;;;;;;;78.30;41.05;;;-5.20;99.90;;;;;;5057441;28;20045;-66
2022/03/08 03:52:34;;;;;;;72.65;38.35;;;-5.20;99.90;;;;;;5064066;28;20032;-65
2022/03/08 03:55:05;;;;;;;90.82;45.30;;;-5.20;99.90;;;;;;5056503;28;20131;-63
2022/03/08 03:57:32;;;;;;;85.10;43.67;;;-5.20;99.90;;;;;;5056346;28;20072;-63
2022/03/08 03:59:58;;;;;;;83.85;43.00;;;-5.20;99.90;;;;;;5051584;28;20063;-64
2022/03/08 04:02:25;;;;;;;91.50;43.33;;;-5.30;99.90;;;;;;5036393;28;20049;-64
2022/03/08 04:04:53;;;;;;;86.50;43.45;;;-5.30;99.90;;;;;;5035602;28;20041;-65
2022/03/08 04:07:20;;;;;;;87.03;44.03;;;-5.30;99.90;;;;;;5058730;28;20048;-64
2022/03/08 04:09:46;;;;;;;83.47;43.92;;;-5.30;99.90;;;;;;5056867;28;20040;-64
2022/03/08 04:12:13;;;;;;;88.65;43.92;;;-5.30;99.90;;;;;;5076791;28;20093;-66
2022/03/08 04:14:40;;;;;;;80.57;39.47;;;-5.30;99.90;;;;;;5076020;28;20706;-61
2022/03/08 04:17:07;;;;;;;84.60;43.50;;;-5.30;99.90;;;;;;5077087;28;20100;-61
2022/03/08 04:19:34;;;;;;;89.55;45.25;;;-5.30;99.90;;;;;;5076247;28;20140;-61
2022/03/08 04:22:00;;;;;;;80.45;42.63;;;-5.30;99.90;;;;;;5076176;28;20460;-61
2022/03/08 04:24:27;;;;;;;86.40;42.45;;;-5.30;99.90;;;;;;5056646;28;20052;-61
2022/03/08 04:26:54;;;;;;;80.38;42.03;;;-5.30;99.90;;;;;;5056787;28;20044;-61
2022/03/08 04:29:21;;;;;;;90.68;45.35;;;-5.30;99.90;;;;;;5055819;28;20128;-60
2022/03/08 04:31:47;;;;;;;82.90;43.45;;;-5.20;99.90;;;;;;5056348;28;20178;-61
2022/03/08 04:34:14;;;;;;;84.13;44.00;;;-5.20;99.90;;;;;;5068068;28;20055;-61
2022/03/08 04:36:42;;;;;;;82.03;42.55;;;-5.20;99.90;;;;;;5075759;28;20055;-61
2022/03/08 04:39:09;;;;;;;78.78;41.05;;;-5.20;99.90;;;;;;5077419;28;20094;-61
2022/03/08 04:41:36;;;;;;;79.95;40.40;;;-5.20;99.90;;;;;;5076473;28;20059;-61
2022/03/08 04:44:03;;;;;;;79.95;39.70;;;-5.30;99.90;;;;;;5075748;28;20053;-60
2022/03/08 04:46:30;;;;;;;77.80;40.58;;;-5.30;99.90;;;;;;5076279;28;20047;-61
2022/03/08 04:48:57;;;;;;;78.35;41.17;;;-5.40;99.90;;;;;;5076388;28;20077;-60
2022/03/08 04:51:23;;;;;;;78.22;39.53;;;-5.40;99.90;;;;;;5071608;28;20048;-61
2022/03/08 04:53:50;;;;;;;77.30;40.03;;;-5.40;99.90;;;;;;5038806;28;20077;-60
2022/03/08 04:56:18;;;;;;;71.47;38.15;;;-5.40;99.90;;;;;;5036034;28;20053;-61
2022/03/08 04:58:46;;;;;;;72.78;38.67;;;-5.50;99.90;;;;;;5034011;28;20040;-59
2022/03/08 05:01:18;;;;;;;80.10;41.28;;;-5.50;99.90;;;;;;5036253;28;20044;-60
2022/03/08 05:03:45;;;;;;;86.78;41.33;;;-5.50;99.90;;;;;;5034940;28;20067;-61
2022/03/08 05:06:12;;;;;;;76.90;39.33;;;-5.50;99.90;;;;;;5048923;28;20051;-61
2022/03/08 05:08:39;;;;;;;78.93;39.00;;;-5.50;99.90;;;;;;5075901;28;20085;-63
2022/03/08 05:11:05;;;;;;;73.70;39.65;;;-5.60;99.90;;;;;;5065601;28;20553;-62
2022/03/08 05:13:32;;;;;;;86.90;43.00;;;-5.60;99.90;;;;;;5054231;28;20044;-62
2022/03/08 05:15:59;;;;;;;81.10;40.55;;;-5.60;99.90;;;;;;5055491;28;20036;-62
2022/03/08 05:18:27;;;;;;;78.28;39.28;;;-5.60;99.90;;;;;;5055545;28;20040;-62
2022/03/08 05:20:54;;;;;;;67.50;38.20;;;-5.60;99.90;;;;;;5055214;28;20043;-62
2022/03/08 05:23:20;;;;;;;89.97;46.05;;;-5.60;99.90;;;;;;5063830;28;20056;-62
2022/03/08 05:25:48;;;;;;;84.53;43.50;;;-5.70;99.90;;;;;;5075456;28;20056;-65
2022/03/08 05:28:15;;;;;;;85.47;42.40;;;-5.70;99.90;;;;;;5075481;28;20118;-65
2022/03/08 05:30:42;;;;;;;92.47;47.25;;;-5.70;99.90;;;;;;5055094;28;20106;-66
2022/03/08 05:33:08;;;;;;;92.72;45.53;;;-5.70;99.90;;;;;;5041143;28;20062;-65
2022/03/08 05:35:35;;;;;;;86.43;44.30;;;-5.70;99.90;;;;;;5075093;28;20048;-65
2022/03/08 05:38:02;;;;;;;87.32;44.15;;;-5.70;99.90;;;;;;5075224;28;20082;-65
2022/03/08 05:40:29;;;;;;;89.88;44.00;;;-5.70;99.90;;;;;;5075423;28;20758;-65
2022/03/08 05:42:58;;;;;;;95.22;44.75;;;-5.70;99.90;;;;;;5073617;28;20087;-61
2022/03/08 05:45:25;;;;;;;87.47;41.72;;;-5.70;99.90;;;;;;5073915;28;20032;-61
2022/03/08 05:47:52;;;;;;;76.82;39.38;;;-5.70;99.90;;;;;;5074813;28;20043;-61
2022/03/08 05:50:18;;;;;;;83.18;41.38;;;-5.70;99.90;;;;;;5074956;28;20102;-61
2022/03/08 05:52:45;;;;;;;89.80;41.63;;;-5.70;99.90;;;;;;5052296;28;20875;-61
2022/03/08 05:55:12;;;;;;;88.18;43.25;;;-5.70;99.90;;;;;;5034505;28;20041;-61
2022/03/08 05:57:39;;;;;;;85.85;44.42;;;-5.70;99.90;;;;;;5050022;28;20458;-61
2022/03/08 06:00:07;;;;;;;93.65;46.83;;;-5.80;99.90;;;;;;5034602;28;20048;-61
2022/03/08 06:02:38;;;;;;;83.88;42.42;;;-5.80;99.90;;;;;;5033548;28;20047;-60
2022/03/08 06:05:06;;;;;;;86.53;44.78;;;-5.80;99.90;;;;;;5033677;28;20992;-60
2022/03/08 06:07:32;;;;;;;90.75;45.78;;;-5.80;99.90;;;;;;5050537;28;20051;-60
2022/03/08 06:09:59;;;;;;;84.47;41.40;;;-5.80;99.90;;;;;;5055285;28;20048;-60
2022/03/08 06:12:26;;;;;;;96.05;47.72;;;-5.80;99.90;;;;;;5073994;28;20099;-60
2022/03/08 06:14:53;;;;;;;91.93;45.72;;;-5.80;99.90;;;;;;5073750;28;20039;-60
2022/03/08 06:17:20;;;;;;;92.25;45.88;;;-5.80;99.90;;;;;;5074436;28;20044;-60
2022/03/08 06:19:46;;;;;;;96.03;44.10;;;-5.80;99.90;;;;;;5074356;28;20531;-60
2022/03/08 06:22:13;;;;;;;86.55;42.03;;;-5.80;99.90;;;;;;5074023;28;20060;-60
2022/03/08 06:24:40;;;;;;;86.82;45.50;;;-5.70;99.90;;;;;;5033240;28;20626;-60
2022/03/08 06:27:07;;;;;;;95.15;44.63;;;-5.70;99.90;;;;;;5032547;28;20045;-60
2022/03/08 06:29:33;;;;;;;85.30;43.47;;;-5.60;99.90;;;;;;5034427;28;20045;-60
2022/03/08 06:32:00;;;;;;;88.18;43.50;;;-5.60;99.90;;;;;;5034544;28;20098;-60
2022/03/08 06:34:27;;;;;;;97.18;44.83;;;-5.50;99.90;;;;;;5060630;28;20055;-60
2022/03/08 06:36:54;;;;;;;99.70;49.05;;;-5.50;99.90;;;;;;5074174;28;20152;-60
2022/03/08 06:39:21;;;;;;;91.75;46.65;;;-5.30;99.90;;;;;;5074758;28;20553;-60
2022/03/08 06:41:47;;;;;;;98.22;46.05;;;-5.20;99.90;;;;;;5073996;28;20078;-60
2022/03/08 06:44:14;;;;;;;84.90;43.00;;;-4.90;99.90;;;;;;5072134;28;20051;-57
2022/03/08 06:46:44;;;;;;;94.65;43.60;;;-4.70;99.90;;;;;;5074442;28;20055;-58
2022/03/08 06:49:11;;;;;;;88.22;45.42;;;-4.40;99.90;;;;;;5074352;28;20067;-58
2022/03/08 06:51:38;;;;;;;89.90;44.25;;;-4.10;99.90;;;;;;5068436;28;20045;-58
2022/03/08 06:54:06;;;;;;;81.65;42.42;;;-3.80;99.90;;;;;;5037470;28;20041;-58
2022/03/08 06:56:34;;;;;;;86.13;45.33;;;-3.50;99.90;;;;;;5037164;28;20041;-58
2022/03/08 06:59:02;;;;;;;87.95;44.47;;;-3.10;99.90;;;;;;5037569;28;20063;-58
2022/03/08 07:01:29;;;;;;;83.90;43.35;;;-2.80;99.90;;;;;;5037408;28;20040;-58
2022/03/08 07:03:56;;;;;;;84.03;43.78;;;-2.60;99.90;;;;;;5036637;28;20087;-58
2022/03/08 07:06:23;;;;;;;81.57;43.03;;;-2.40;99.90;;;;;;5053309;28;20068;-58
2022/03/08 07:08:50;;;;;;;80.43;41.70;;;-2.10;99.90;;;;;;5058501;28;20052;-58
2022/03/08 07:11:17;;;;;;;73.88;40.45;;;-1.90;99.90;;;;;;5068883;28;20097;-58
2022/03/08 07:13:44;;;;;;;83.65;42.47;;;-1.70;99.90;;;;;;5077963;28;20044;-58
2022/03/08 07:16:12;;;;;;;83.45;41.85;;;-1.50;99.90;;;;;;5077770;28;20518;-58
2022/03/08 07:18:39;;;;;;;84.60;42.38;;;-1.40;99.90;;;;;;5061345;28;20041;-59
2022/03/08 07:21:05;;;;;;;89.22;43.63;;;-1.30;99.90;;;;;;5037328;28;20041;-58
2022/03/08 07:23:33;;;;;;;81.30;42.80;;;-1.20;99.90;;;;;;5038396;28;20053;-58
2022/03/08 07:26:00;;;;;;;81.13;42.85;;;-1.00;99.90;;;;;;5036530;28;20134;-58
2022/03/08 07:28:27;;;;;;;83.03;43.13;;;-1.00;99.90;;;;;;5039658;28;20061;-58
2022/03/08 07:30:59;;;;;;;79.57;43.17;;;-1.00;99.90;;;;;;5037490;28;20051;-58
2022/03/08 07:33:27;;;;;;;83.93;43.10;;;-0.90;99.90;;;;;;5047318;28;20107;-58
2022/03/08 07:35:54;;;;;;;82.90;43.25;;;-0.70;99.90;;;;;;5073082;28;20059;-58
2022/03/08 07:38:21;;;;;;;75.07;41.05;;;-0.50;99.90;;;;;;5036776;28;20045;-58
2022/03/08 07:40:48;;;;;;;78.18;42.47;;;-0.30;99.90;;;;;;5036844;28;20129;-58
2022/03/08 07:43:15;;;;;;;77.00;41.38;;;0.00;99.90;;;;;;5036441;28;20550;-58
2022/03/08 07:45:41;;;;;;;73.68;40.58;;;0.30;99.90;;;;;;5036452;28;20041;-58
2022/03/08 07:48:08;;;;;;;73.63;40.85;;;0.50;99.90;;;;;;5053908;28;20049;-57
2022/03/08 07:50:36;;;;;;;71.97;41.42;;;0.60;99.90;;;;;;5056536;28;20056;-58
2022/03/08 07:53:04;;;;;;;75.43;42.15;;;0.80;99.90;;;;;;5038633;28;20060;-57
2022/03/08 07:55:32;;;;;;;73.30;39.75;;;1.00;99.90;;;;;;5035786;28;20086;-58
2022/03/08 07:58:00;;;;;;;76.30;40.72;;;1.30;99.90;;;;;;5036824;28;20044;-58
2022/03/08 08:00:30;;;;;;;67.65;38.95;;;1.60;99.90;;;;;;5036182;28;20451;-58
2022/03/08 08:02:57;;;;;;;70.70;39.80;;;1.80;99.10;;;;;;5035855;28;20132;-58
2022/03/08 08:05:24;;;;;;;72.18;38.83;;;2.10;98.70;;;;;;5054837;28;20134;-58
2022/03/08 08:07:51;;;;;;;;;;;2.20;97.80;;;;;;5037562;28;20102;-58
2022/03/08 08:10:18;;;;;;;69.25;40.88;;;2.40;96.70;;;;;;5038939;28;19920;-58
2022/03/08 08:12:45;;;;;;;69.90;40.53;;;2.60;96.00;;;;;;5035987;28;20765;-59
2022/03/08 08:15:12;;;;;;;67.63;40.30;;;2.80;94.60;;;;;;5050611;28;20120;-59
2022/03/08 08:17:39;;;;;;;70.93;41.53;;;3.00;93.00;;;;;;5035724;28;20044;-59
2022/03/08 08:20:08;;;;;;;71.43;42.85;;;3.20;93.90;;;;;;5036420;28;20126;-59
2022/03/08 08:22:35;;;;;;;65.93;39.35;;;3.50;92.90;;;;;;5038625;28;20575;-59
2022/03/08 08:25:02;;;;;;;;;;;3.60;91.30;;;;;;5035748;28;20041;-59
2022/03/08 08:27:29;;;;;;;68.38;37.08;;;3.80;90.40;;;;;;5050033;28;19929;-59
2022/03/08 08:29:55;;;;;;;;;;;3.90;90.30;;;;;;5036298;28;20040;-59
2022/03/08 08:32:22;;;;;;;71.35;39.20;;;4.00;90.00;;;;;;5035658;28;19929;-59
2022/03/08 08:34:49;;;;;;;;;;;4.10;89.30;;;;;;5036206;28;20048;-59
2022/03/08 08:37:16;;;;;;;69.28;40.22;;;4.20;87.20;;;;;;5035886;28;20375;-59
2022/03/08 08:39:43;;;;;;;70.25;42.65;;;4.20;85.60;;;;;;5035217;28;20033;-59
2022/03/08 08:42:09;;;;;;;;;;;4.20;84.10;;;;;;5036592;28;20041;-59
2022/03/08 08:44:42;;;;;;;72.68;42.40;;;4.20;83.70;;;;;;5052690;28;20386;-59
2022/03/08 08:47:09;;;;;;;70.57;41.33;;;4.20;84.30;;;;;;5055684;28;20055;-59
2022/03/08 08:49:36;;;;;;;72.20;44.10;;;4.30;84.20;;;;;;5055773;28;20045;-59
2022/03/08 08:52:03;;;;;;;;;;;4.00;83.70;;;;;;5063906;28;20040;-58
2022/03/08 08:54:30;;;;;;;70.37;41.70;;;3.80;85.60;;;;;;5042286;28;19924;-59
2022/03/08 08:56:57;;;;;;;73.05;43.90;;;3.70;87.30;;;;;;5035317;28;20649;-59
2022/03/08 08:59:24;;;;;;;;;;;3.70;86.70;;;;;;5036533;28;20782;-59
2022/03/08 09:01:51;;;;;;;66.88;40.65;;;3.80;87.80;;;;;;5035289;28;20454;-59
2022/03/08 09:04:18;;;;;;;68.45;42.50;;;3.90;86.60;;;;;;5035079;28;20734;-59
2022/03/08 09:06:45;;;;;;;;;;;4.10;85.50;;;;;;5052165;28;20051;-59
2022/03/08 09:09:12;;;;;;;74.95;41.60;;;4.30;84.90;;;;;;5053345;28;19930;-59
2022/03/08 09:11:39;;;;;;;67.70;43.38;;;4.50;85.30;;;;;;5068173;28;20036;-58
2022/03/08 09:14:05;;;;;;;;;;;4.80;84.30;;;;;;5044582;28;20069;-59
2022/03/08 09:16:32;;;;;;;65.75;39.90;;;5.00;82.30;;;;;;5031394;28;20555;-59
2022/03/08 09:18:59;;;;;;;69.15;41.80;;;5.20;82.20;;;;;;5033528;28;20055;-58
2022/03/08 09:21:26;;;;;;;;;;;5.40;79.50;;;;;;5034623;28;20052;-58
2022/03/08 09:23:53;;;;;;;66.68;40.00;;;5.40;78.30;;;;;;5059560;28;19926;-58
2022/03/08 09:26:20;;;;;;;65.25;41.22;;;5.40;79.50;;;;;;5073801;28;20048;-57
2022/03/08 09:28:46;;;;;;;63.92;42.60;;;5.50;78.70;;;;;;5073645;28;20044;-55
2022/03/08 09:31:13;;;;;;;65.22;41.65;;;5.70;76.60;;;;;;5073640;28;20493;-56
2022/03/08 09:33:41;;;;;;;69.38;42.35;;;5.50;75.80;;;;;;5060536;28;20040;-56
2022/03/08 09:36:09;;;;;;;66.03;41.60;;;5.40;76.20;;;;;;5032987;28;20440;-56
2022/03/08 09:38:37;;;;;;;67.40;41.72;;;5.40;77.00;;;;;;5033332;28;20045;-56
2022/03/08 09:41:04;;;;;;;63.38;41.25;;;5.40;76.20;;;;;;5032642;28;20056;-56
2022/03/08 09:43:35;;;;;;;70.05;42.25;;;5.30;75.00;;;;;;5032710;28;20637;-56
2022/03/08 09:46:03;;;;;;;70.07;43.75;;;5.00;75.50;;;;;;5032426;28;20048;-56
2022/03/08 09:48:31;;;;;;;66.97;42.45;;;4.70;75.60;;;;;;5033267;28;20052;-65
2022/03/08 09:51:03;;;;;;;65.60;41.28;;;4.40;78.50;;;;;;5048739;28;20048;-50
2022/03/08 09:53:31;;;;;;;67.95;42.33;;;4.50;80.70;;;;;;5058035;28;20144;-50
2022/03/08 09:55:59;;;;;;;66.03;42.78;;;4.70;78.70;;;;;;5052882;28;20044;-57
2022/03/08 09:58:31;;;;;;;67.20;44.83;;;5.00;77.30;;;;;;5052620;28;20047;-56
2022/03/08 10:01:00;;;;;;;66.50;41.00;;;5.40;80.90;;;;;;5051841;28;20040;-56
2022/03/08 10:03:40;;;;;;;64.93;40.20;;;5.90;77.80;;;;;;5052017;28;20048;-56
2022/03/08 10:06:09;;;;;;;67.30;42.15;;;6.40;77.00;;;;;;5057108;28;20477;-56
2022/03/08 10:08:37;;;;;;;71.18;42.13;;;7.00;75.00;;;;;;5052542;28;20117;-56
2022/03/08 10:11:11;;;;;;;63.97;41.55;;;7.30;70.00;;;;;;5062468;28;20054;-56
2022/03/08 10:13:50;;;;;;;70.15;41.75;;;7.60;66.40;;;;;;5071647;28;20044;-55
2022/03/08 10:16:41;;;;;;;60.47;40.53;;;7.50;65.70;;;;;;5072218;28;20064;-56
2022/03/08 10:19:13;;;;;;;66.82;41.15;;;7.50;65.60;;;;;;5072717;28;20060;-55
2022/03/08 10:21:45;;;;;;;60.05;40.55;;;7.60;67.30;;;;;;5072884;28;20048;-56
2022/03/08 10:24:13;;;;;;;63.53;39.50;;;7.80;67.30;;;;;;5055008;28;20667;-58
2022/03/08 10:26:49;;;;;;;59.85;38.88;;;8.10;67.00;;;;;;5052457;28;20044;-58
2022/03/08 10:29:34;;;;;;;58.72;37.78;;;8.30;64.70;;;;;;5050779;28;20723;-58
2022/03/08 10:32:04;;;;;;;54.15;37.67;;;8.50;64.60;;;;;;5051970;28;20044;-56
2022/03/08 10:34:31;;;;;;;55.08;35.75;;;8.70;62.50;;;;;;5065442;28;20579;-56
2022/03/08 10:37:03;;;;;;;56.92;37.95;;;8.90;61.80;;;;;;5071971;28;20125;-56
2022/03/08 10:39:30;;;;;;;55.05;37.72;;;8.80;60.70;;;;;;5072592;28;20104;-56
2022/03/08 10:41:58;;;;;;;;;;;8.70;61.80;;;;;;5073003;28;20105;-56
2022/03/08 10:44:34;;;;;;;52.83;35.92;;;8.70;64.30;;;;;;5072049;28;19977;-57
2022/03/08 10:47:08;;;;;;;53.28;35.22;;;8.90;63.70;;;;;;5071765;28;20052;-56
2022/03/08 10:49:48;;;;;;;58.03;37.55;;;9.10;61.60;;;;;;5061763;28;20052;-56
2022/03/08 10:52:15;;;;;;;51.05;34.75;;;9.20;59.90;;;;;;5042392;28;20052;-56
2022/03/08 10:54:42;;;;;;;53.85;36.70;;;9.10;59.60;;;;;;5051849;28;20503;-57
2022/03/08 10:57:13;;;;;;;58.53;37.65;;;9.00;59.80;;;;;;5040110;28;20130;-56
2022/03/08 11:00:00;;;;;;;51.60;35.33;;;8.70;59.20;;;;;;5030763;28;20149;-57
2022/03/08 11:02:26;;;;;;;51.88;35.10;;;8.30;59.70;;;;;;5031433;28;20051;-58
2022/03/08 11:05:06;;;;;;;;;;;8.20;59.60;;;;;;5030844;28;20041;-58
2022/03/08 11:07:36;;;;;;;51.53;36.40;;;8.00;59.10;;;;;;5037036;28;20003;-59
2022/03/08 11:10:05;;;;;;;55.35;38.72;;;7.90;61.50;;;;;;5033086;28;20040;-58
2022/03/08 11:12:32;;;;;;;52.78;37.75;;;7.70;61.20;;;;;;5029796;28;20037;-59
2022/03/08 11:14:59;;;;;;;;;;;7.50;62.60;;;;;;5030493;28;20041;-57
2022/03/08 11:17:26;;;;;;;52.22;35.50;;;7.40;62.50;;;;;;5031581;28;19928;-58
2022/03/08 11:19:53;;;;;;;52.08;35.03;;;7.60;62.80;;;;;;5029716;28;20071;-58
2022/03/08 11:22:22;;;;;;;56.75;37.42;;;7.70;61.40;;;;;;5032889;28;20681;-59
2022/03/08 11:24:52;;;;;;;50.80;35.83;;;7.80;60.90;;;;;;5047785;28;20098;-58
2022/03/08 11:27:20;;;;;;;54.08;38.28;;;7.90;61.60;;;;;;5051269;28;20126;-58
2022/03/08 11:29:48;;;;;;;52.90;35.03;;;8.00;61.20;;;;;;5051316;28;20044;-58
2022/03/08 11:32:21;;;;;;;51.92;35.78;;;8.00;60.50;;;;;;5047358;28;20033;-59
2022/03/08 11:34:59;;;;;;;51.97;36.30;;;7.90;59.40;;;;;;5030319;28;20044;-58
2022/03/08 11:37:26;;;;;;;;;;;7.80;60.40;;;;;;5050305;28;20442;-56
2022/03/08 11:40:05;;;;;;;56.03;36.72;;;7.90;61.10;;;;;;5051956;28;19925;-56
2022/03/08 11:42:34;;;;;;;52.40;36.58;;;8.00;61.40;;;;;;5054322;28;20044;-56
2022/03/08 11:45:11;;;;;;;52.97;36.65;;;8.10;62.20;;;;;;5053808;28;20049;-56
2022/03/08 11:47:44;;;;;;;51.90;36.03;;;8.30;62.60;;;;;;5055439;28;20048;-56
2022/03/08 11:50:22;;;;;;;52.40;36.53;;;8.50;59.80;;;;;;5055617;28;20040;-56
2022/03/08 11:53:12;;;;;;;53.28;35.65;;;8.70;59.20;;;;;;5053766;28;20052;-57
2022/03/08 11:55:48;;;;;;;51.00;35.58;;;8.90;58.50;;;;;;5054729;28;20040;-57
2022/03/08 11:58:18;;;;;;;55.83;35.95;;;9.00;58.60;;;;;;5055835;28;20521;-59
2022/03/08 12:00:59;;;;;;;52.10;36.05;;;9.10;58.30;;;;;;5054417;28;20538;-59
2022/03/08 12:03:25;;;;;;;56.40;37.42;;;9.20;57.70;;;;;;5054401;28;20056;-57
2022/03/08 12:06:10;;;;;;;50.50;37.20;;;9.10;57.60;;;;;;5058810;28;20052;-58
2022/03/08 12:08:41;;;;;;;51.35;35.38;;;9.00;57.90;;;;;;5055188;28;20047;-58
2022/03/08 12:11:32;;;;;;;51.30;35.83;;;9.10;58.90;;;;;;5064881;28;20058;-58
2022/03/08 12:14:24;;;;;;;48.40;34.25;;;9.30;58.30;;;;;;5074043;28;20040;-58
2022/03/08 12:17:04;;;;;;;50.42;36.60;;;9.60;58.60;;;;;;5074685;28;20563;-58
2022/03/08 12:19:40;;;;;;;48.35;34.33;;;9.90;57.70;;;;;;5074902;28;20565;-58
2022/03/08 12:22:18;;;;;;;47.40;34.90;;;10.10;57.20;;;;;;5074815;28;20047;-58
2022/03/08 12:24:53;;;;;;;54.17;38.83;;;10.10;56.40;;;;;;5034127;28;21153;-58
2022/03/08 12:27:23;;;;;;;48.55;34.85;;;10.00;56.20;;;;;;5033959;28;20285;-58
2022/03/08 12:29:59;;;;;;;51.42;36.50;;;9.90;56.10;;;;;;5034535;28;20045;-58
2022/03/08 12:32:39;;;;;;;52.03;35.22;;;9.90;56.40;;;;;;5033981;28;20152;-58
2022/03/08 12:35:10;;;;;;;48.38;34.15;;;9.70;56.00;;;;;;5071976;28;20059;-58
2022/03/08 12:37:41;;;;;;;52.40;33.20;;;9.70;56.20;;;;;;5074756;28;20813;-58
2022/03/08 12:40:15;;;;;;;48.42;35.22;;;9.70;56.00;;;;;;5075000;28;20040;-64
2022/03/08 12:43:09;;;;;;;49.83;35.08;;;9.80;56.20;;;;;;5074687;28;20032;-57